sensor_id;sensor_type;location;lat;lon;timestamp;pressure;altitude;pressure_sealevel;temperature;humidity
16690;BME280;8458;52.220;9.884;2023-06-22T00:01:08;101059.19;;;23.00;72.53
16690;BME280;8458;52.220;9.884;2023-06-22T00:03:34;101054.88;;;22.94;72.68
16690;BME280;8458;52.220;9.884;2023-06-22T00:06:01;101053.03;;;22.98;72.86
16690;BME280;8458;52.220;9.884;2023-06-22T00:08:27;101061.72;;;22.93;73.30
16690;BME280;8458;52.220;9.884;2023-06-22T00:10:54;101057.91;;;22.89;73.42
16690;BME280;8458;52.220;9.884;2023-06-22T00:13:20;101065.25;;;22.81;73.92
16690;BME280;8458;52.220;9.884;2023-06-22T00:15:48;101065.59;;;22.80;74.00
16690;BME280;8458;52.220;9.884;2023-06-22T00:18:15;101070.78;;;22.78;73.74
16690;BME280;8458;52.220;9.884;2023-06-22T00:20:42;101073.16;;;22.67;74.75
16690;BME280;8458;52.220;9.884;2023-06-22T00:23:11;101082.44;;;22.67;74.21
16690;BME280;8458;52.220;9.884;2023-06-22T00:25:39;101084.78;;;22.65;73.56
16690;BME280;8458;52.220;9.884;2023-06-22T00:28:06;101089.28;;;22.58;73.93
16690;BME280;8458;52.220;9.884;2023-06-22T00:30:33;101079.50;;;22.55;73.91
16690;BME280;8458;52.220;9.884;2023-06-22T00:33:01;101082.16;;;22.51;73.89
16690;BME280;8458;52.220;9.884;2023-06-22T00:35:28;101079.69;;;22.50;74.36
16690;BME280;8458;52.220;9.884;2023-06-22T00:37:55;101084.34;;;22.46;74.33
16690;BME280;8458;52.220;9.884;2023-06-22T00:40:26;101089.50;;;22.44;74.82
16690;BME280;8458;52.220;9.884;2023-06-22T00:42:53;101082.69;;;22.36;75.30
16690;BME280;8458;52.220;9.884;2023-06-22T00:45:20;101072.91;;;22.33;74.88
16690;BME280;8458;52.220;9.884;2023-06-22T00:47:48;101066.09;;;22.08;75.68
16690;BME280;8458;52.220;9.884;2023-06-22T00:50:18;101057.97;;;22.07;75.71
16690;BME280;8458;52.220;9.884;2023-06-22T00:52:47;101056.28;;;22.06;75.85
16690;BME280;8458;52.220;9.884;2023-06-22T00:55:14;101051.50;;;22.06;75.56
16690;BME280;8458;52.220;9.884;2023-06-22T00:57:43;101061.94;;;22.06;75.82
16690;BME280;8458;52.220;9.884;2023-06-22T01:00:11;101043.38;;;22.05;75.59
16690;BME280;8458;52.220;9.884;2023-06-22T01:02:42;101044.19;;;22.05;75.34
16690;BME280;8458;52.220;9.884;2023-06-22T01:05:10;101042.03;;;22.02;75.80
16690;BME280;8458;52.220;9.884;2023-06-22T01:07:44;101047.34;;;22.03;75.87
16690;BME280;8458;52.220;9.884;2023-06-22T01:10:16;101035.91;;;22.00;75.64
16690;BME280;8458;52.220;9.884;2023-06-22T01:12:48;101036.88;;;22.04;74.52
16690;BME280;8458;52.220;9.884;2023-06-22T01:15:20;101046.53;;;21.94;73.13
16690;BME280;8458;52.220;9.884;2023-06-22T01:17:48;101033.91;;;21.83;73.34
16690;BME280;8458;52.220;9.884;2023-06-22T01:20:16;101034.59;;;21.80;73.79
16690;BME280;8458;52.220;9.884;2023-06-22T01:22:57;101033.75;;;21.71;74.39
16690;BME280;8458;52.220;9.884;2023-06-22T01:25:33;101037.72;;;21.70;74.40
16690;BME280;8458;52.220;9.884;2023-06-22T01:28:07;101021.47;;;21.66;75.21
16690;BME280;8458;52.220;9.884;2023-06-22T01:30:42;101023.13;;;21.67;75.63
16690;BME280;8458;52.220;9.884;2023-06-22T01:33:13;101029.75;;;21.54;73.93
16690;BME280;8458;52.220;9.884;2023-06-22T01:35:40;101040.22;;;21.54;74.48
16690;BME280;8458;52.220;9.884;2023-06-22T01:38:08;101038.56;;;21.53;75.55
16690;BME280;8458;52.220;9.884;2023-06-22T01:40:36;101036.06;;;21.51;76.49
16690;BME280;8458;52.220;9.884;2023-06-22T01:43:03;101026.94;;;21.54;76.81
16690;BME280;8458;52.220;9.884;2023-06-22T01:45:30;101031.88;;;21.48;77.60
16690;BME280;8458;52.220;9.884;2023-06-22T01:47:58;101033.38;;;21.46;77.26
16690;BME280;8458;52.220;9.884;2023-06-22T01:50:25;101023.09;;;21.41;76.90
16690;BME280;8458;52.220;9.884;2023-06-22T01:52:52;101028.91;;;21.45;77.38
16690;BME280;8458;52.220;9.884;2023-06-22T01:55:18;101029.56;;;21.42;78.17
16690;BME280;8458;52.220;9.884;2023-06-22T01:57:45;101032.38;;;21.42;78.63
16690;BME280;8458;52.220;9.884;2023-06-22T02:00:14;101020.09;;;21.38;78.32
16690;BME280;8458;52.220;9.884;2023-06-22T02:02:49;101032.88;;;21.35;78.12
16690;BME280;8458;52.220;9.884;2023-06-22T02:05:20;101024.91;;;21.37;78.12
16690;BME280;8458;52.220;9.884;2023-06-22T02:07:54;101031.03;;;21.30;78.44
16690;BME280;8458;52.220;9.884;2023-06-22T02:10:23;101035.00;;;21.29;78.43
16690;BME280;8458;52.220;9.884;2023-06-22T02:12:51;101036.69;;;21.30;78.15
16690;BME280;8458;52.220;9.884;2023-06-22T02:15:19;101035.66;;;21.26;78.25
16690;BME280;8458;52.220;9.884;2023-06-22T02:17:47;101045.59;;;21.24;78.58
16690;BME280;8458;52.220;9.884;2023-06-22T02:20:14;101035.66;;;21.26;78.62
16690;BME280;8458;52.220;9.884;2023-06-22T02:22:42;101042.78;;;21.24;79.09
16690;BME280;8458;52.220;9.884;2023-06-22T02:25:09;101032.00;;;21.17;78.21
16690;BME280;8458;52.220;9.884;2023-06-22T02:27:36;101039.78;;;21.11;78.46
16690;BME280;8458;52.220;9.884;2023-06-22T02:30:06;101038.31;;;21.14;78.82
16690;BME280;8458;52.220;9.884;2023-06-22T02:32:33;101049.09;;;21.21;78.61
16690;BME280;8458;52.220;9.884;2023-06-22T02:35:00;101046.47;;;21.24;78.92
16690;BME280;8458;52.220;9.884;2023-06-22T02:37:29;101044.59;;;21.11;79.40
16690;BME280;8458;52.220;9.884;2023-06-22T02:39:57;101055.22;;;21.14;78.83
16690;BME280;8458;52.220;9.884;2023-06-22T02:42:23;101057.34;;;21.08;77.13
16690;BME280;8458;52.220;9.884;2023-06-22T02:44:50;101057.84;;;21.02;76.65
16690;BME280;8458;52.220;9.884;2023-06-22T02:47:16;101066.44;;;20.97;77.03
16690;BME280;8458;52.220;9.884;2023-06-22T02:49:43;101059.34;;;20.99;77.28
16690;BME280;8458;52.220;9.884;2023-06-22T02:52:10;101064.78;;;20.95;77.87
16690;BME280;8458;52.220;9.884;2023-06-22T02:54:36;101084.00;;;20.93;77.56
16690;BME280;8458;52.220;9.884;2023-06-22T02:57:05;101075.88;;;20.92;77.33
16690;BME280;8458;52.220;9.884;2023-06-22T02:59:31;101080.69;;;20.91;77.60
16690;BME280;8458;52.220;9.884;2023-06-22T03:01:57;101074.69;;;20.84;78.33
16690;BME280;8458;52.220;9.884;2023-06-22T03:04:24;101083.66;;;20.86;78.83
16690;BME280;8458;52.220;9.884;2023-06-22T03:06:50;101084.66;;;20.90;78.70
16690;BME280;8458;52.220;9.884;2023-06-22T03:09:17;101079.03;;;20.90;79.23
16690;BME280;8458;52.220;9.884;2023-06-22T03:11:44;101084.81;;;20.85;78.42
16690;BME280;8458;52.220;9.884;2023-06-22T03:14:12;101088.78;;;20.84;78.20
16690;BME280;8458;52.220;9.884;2023-06-22T03:16:38;101083.16;;;20.84;78.49
16690;BME280;8458;52.220;9.884;2023-06-22T03:19:05;101078.31;;;20.85;79.10
16690;BME280;8458;52.220;9.884;2023-06-22T03:21:32;101080.31;;;20.84;79.75
16690;BME280;8458;52.220;9.884;2023-06-22T03:23:58;101073.03;;;20.83;80.36
16690;BME280;8458;52.220;9.884;2023-06-22T03:26:25;101081.34;;;20.88;80.84
16690;BME280;8458;52.220;9.884;2023-06-22T03:28:52;101095.28;;;20.93;80.87
16690;BME280;8458;52.220;9.884;2023-06-22T03:31:19;101086.13;;;20.88;81.49
16690;BME280;8458;52.220;9.884;2023-06-22T03:33:47;101086.50;;;20.95;81.29
16690;BME280;8458;52.220;9.884;2023-06-22T03:36:14;101095.13;;;20.99;81.24
16690;BME280;8458;52.220;9.884;2023-06-22T03:38:41;101086.50;;;20.95;79.73
16690;BME280;8458;52.220;9.884;2023-06-22T03:41:08;101079.53;;;20.92;78.74
16690;BME280;8458;52.220;9.884;2023-06-22T03:43:34;101078.16;;;20.81;78.71
16690;BME280;8458;52.220;9.884;2023-06-22T03:46:00;101085.47;;;20.82;79.21
16690;BME280;8458;52.220;9.884;2023-06-22T03:48:28;101084.28;;;20.74;80.25
16690;BME280;8458;52.220;9.884;2023-06-22T03:50:55;101080.59;;;20.74;80.68
16690;BME280;8458;52.220;9.884;2023-06-22T03:53:22;101078.09;;;20.72;81.12
16690;BME280;8458;52.220;9.884;2023-06-22T03:55:49;101077.28;;;20.72;81.52
16690;BME280;8458;52.220;9.884;2023-06-22T03:58:16;101079.59;;;20.70;82.03
16690;BME280;8458;52.220;9.884;2023-06-22T04:00:44;101066.38;;;20.79;82.82
16690;BME280;8458;52.220;9.884;2023-06-22T04:03:11;101065.38;;;20.75;83.69
16690;BME280;8458;52.220;9.884;2023-06-22T04:05:39;101068.69;;;20.77;83.93
16690;BME280;8458;52.220;9.884;2023-06-22T04:08:06;101060.75;;;20.79;84.39
16690;BME280;8458;52.220;9.884;2023-06-22T04:10:32;101070.03;;;20.80;84.68
16690;BME280;8458;52.220;9.884;2023-06-22T04:12:59;101069.72;;;20.81;85.28
16690;BME280;8458;52.220;9.884;2023-06-22T04:15:26;101066.94;;;20.90;85.50
16690;BME280;8458;52.220;9.884;2023-06-22T04:17:54;101071.06;;;20.92;86.13
16690;BME280;8458;52.220;9.884;2023-06-22T04:20:21;101064.78;;;20.95;85.99
16690;BME280;8458;52.220;9.884;2023-06-22T04:22:49;101071.06;;;20.92;86.29
16690;BME280;8458;52.220;9.884;2023-06-22T04:25:15;101078.06;;;20.95;85.64
16690;BME280;8458;52.220;9.884;2023-06-22T04:27:41;101082.50;;;20.87;86.12
16690;BME280;8458;52.220;9.884;2023-06-22T04:30:08;101076.16;;;20.82;86.60
16690;BME280;8458;52.220;9.884;2023-06-22T04:32:36;101080.66;;;20.83;86.51
16690;BME280;8458;52.220;9.884;2023-06-22T04:35:02;101077.00;;;20.82;86.78
16690;BME280;8458;52.220;9.884;2023-06-22T04:37:29;101083.94;;;20.76;87.64
16690;BME280;8458;52.220;9.884;2023-06-22T04:39:57;101082.66;;;20.82;87.85
16690;BME280;8458;52.220;9.884;2023-06-22T04:42:25;101086.78;;;20.85;87.76
16690;BME280;8458;52.220;9.884;2023-06-22T04:44:52;101083.84;;;20.90;87.34
16690;BME280;8458;52.220;9.884;2023-06-22T04:47:19;101074.53;;;20.89;87.21
16690;BME280;8458;52.220;9.884;2023-06-22T04:49:45;101073.38;;;20.90;86.85
16690;BME280;8458;52.220;9.884;2023-06-22T04:52:13;101070.06;;;20.88;87.25
16690;BME280;8458;52.220;9.884;2023-06-22T04:54:45;101069.06;;;20.84;87.31
16690;BME280;8458;52.220;9.884;2023-06-22T04:57:15;101066.25;;;20.84;87.72
16690;BME280;8458;52.220;9.884;2023-06-22T04:59:42;101071.53;;;20.86;88.17
16690;BME280;8458;52.220;9.884;2023-06-22T05:02:09;101054.31;;;20.87;88.45
16690;BME280;8458;52.220;9.884;2023-06-22T05:04:36;101062.13;;;20.90;88.22
16690;BME280;8458;52.220;9.884;2023-06-22T05:07:04;101062.28;;;20.94;88.43
16690;BME280;8458;52.220;9.884;2023-06-22T05:09:31;101060.31;;;20.94;89.05
16690;BME280;8458;52.220;9.884;2023-06-22T05:11:59;101057.34;;;21.00;89.44
16690;BME280;8458;52.220;9.884;2023-06-22T05:14:28;101064.66;;;21.01;89.77
16690;BME280;8458;52.220;9.884;2023-06-22T05:16:55;101056.38;;;21.04;90.23
16690;BME280;8458;52.220;9.884;2023-06-22T05:19:23;101058.69;;;21.02;90.52
16690;BME280;8458;52.220;9.884;2023-06-22T05:21:50;101051.38;;;21.01;90.86
16690;BME280;8458;52.220;9.884;2023-06-22T05:24:16;101055.53;;;21.04;91.31
16690;BME280;8458;52.220;9.884;2023-06-22T05:26:43;101050.06;;;21.07;91.86
16690;BME280;8458;52.220;9.884;2023-06-22T05:29:09;101046.44;;;21.07;92.34
16690;BME280;8458;52.220;9.884;2023-06-22T05:31:37;101051.38;;;21.10;92.70
16690;BME280;8458;52.220;9.884;2023-06-22T05:34:05;101056.03;;;21.14;92.95
16690;BME280;8458;52.220;9.884;2023-06-22T05:36:31;101059.53;;;21.20;91.67
16690;BME280;8458;52.220;9.884;2023-06-22T05:38:58;101049.94;;;21.21;90.99
16690;BME280;8458;52.220;9.884;2023-06-22T05:41:24;101051.56;;;21.22;90.84
16690;BME280;8458;52.220;9.884;2023-06-22T05:43:51;101051.56;;;21.22;90.86
16690;BME280;8458;52.220;9.884;2023-06-22T05:46:19;101054.72;;;21.21;91.59
16690;BME280;8458;52.220;9.884;2023-06-22T05:48:47;101056.56;;;21.25;91.69
16690;BME280;8458;52.220;9.884;2023-06-22T05:51:13;101058.06;;;21.31;90.87
16690;BME280;8458;52.220;9.884;2023-06-22T05:53:40;101056.75;;;21.38;91.00
16690;BME280;8458;52.220;9.884;2023-06-22T05:56:06;101055.44;;;21.44;90.33
16690;BME280;8458;52.220;9.884;2023-06-22T05:58:35;101056.31;;;21.53;89.36
16690;BME280;8458;52.220;9.884;2023-06-22T06:01:01;101056.50;;;21.57;88.27
16690;BME280;8458;52.220;9.884;2023-06-22T06:03:28;101055.84;;;21.60;86.76
16690;BME280;8458;52.220;9.884;2023-06-22T06:05:56;101056.16;;;21.58;86.90
16690;BME280;8458;52.220;9.884;2023-06-22T06:08:22;101051.00;;;21.60;87.05
16690;BME280;8458;52.220;9.884;2023-06-22T06:10:49;101063.13;;;21.61;87.47
16690;BME280;8458;52.220;9.884;2023-06-22T06:13:18;101058.00;;;21.63;87.84
16690;BME280;8458;52.220;9.884;2023-06-22T06:15:44;101057.31;;;21.66;87.02
16690;BME280;8458;52.220;9.884;2023-06-22T06:18:11;101054.84;;;21.64;86.85
16690;BME280;8458;52.220;9.884;2023-06-22T06:20:38;101057.00;;;21.67;86.25
16690;BME280;8458;52.220;9.884;2023-06-22T06:23:05;101051.69;;;21.66;86.19
16690;BME280;8458;52.220;9.884;2023-06-22T06:25:32;101044.19;;;21.70;85.97
16690;BME280;8458;52.220;9.884;2023-06-22T06:27:59;101041.91;;;21.72;85.94
16690;BME280;8458;52.220;9.884;2023-06-22T06:30:25;101032.44;;;21.77;85.33
16690;BME280;8458;52.220;9.884;2023-06-22T06:32:52;101034.06;;;21.78;85.31
16690;BME280;8458;52.220;9.884;2023-06-22T06:35:18;101039.72;;;21.78;84.77
16690;BME280;8458;52.220;9.884;2023-06-22T06:37:47;101034.59;;;21.80;84.64
16690;BME280;8458;52.220;9.884;2023-06-22T06:40:16;101033.75;;;21.79;84.46
16690;BME280;8458;52.220;9.884;2023-06-22T06:42:44;101041.38;;;21.79;85.48
16690;BME280;8458;52.220;9.884;2023-06-22T06:45:11;101042.38;;;21.83;85.66
16690;BME280;8458;52.220;9.884;2023-06-22T06:47:38;101037.38;;;21.89;85.61
16690;BME280;8458;52.220;9.884;2023-06-22T06:50:07;101046.53;;;21.94;85.42
16690;BME280;8458;52.220;9.884;2023-06-22T06:52:33;101034.38;;;22.02;85.20
16690;BME280;8458;52.220;9.884;2023-06-22T06:55:00;101041.03;;;22.07;85.09
16690;BME280;8458;52.220;9.884;2023-06-22T06:57:28;101034.03;;;22.13;84.00
16690;BME280;8458;52.220;9.884;2023-06-22T06:59:55;101037.88;;;22.17;83.70
16690;BME280;8458;52.220;9.884;2023-06-22T07:02:22;101034.84;;;22.22;83.46
16690;BME280;8458;52.220;9.884;2023-06-22T07:04:49;101037.81;;;22.26;83.34
16690;BME280;8458;52.220;9.884;2023-06-22T07:07:16;101039.50;;;22.27;82.18
16690;BME280;8458;52.220;9.884;2023-06-22T07:09:42;101038.81;;;22.30;82.29
16690;BME280;8458;52.220;9.884;2023-06-22T07:12:09;101038.19;;;22.33;81.00
16690;BME280;8458;52.220;9.884;2023-06-22T07:14:37;101038.84;;;22.38;81.46
16690;BME280;8458;52.220;9.884;2023-06-22T07:17:03;101043.31;;;22.40;80.88
16690;BME280;8458;52.220;9.884;2023-06-22T07:19:30;101035.81;;;22.44;80.36
16690;BME280;8458;52.220;9.884;2023-06-22T07:21:57;101030.47;;;22.51;81.74
16690;BME280;8458;52.220;9.884;2023-06-22T07:24:24;101029.63;;;22.59;80.74
16690;BME280;8458;52.220;9.884;2023-06-22T07:26:51;101027.41;;;22.65;80.81
16690;BME280;8458;52.220;9.884;2023-06-22T07:29:18;101018.78;;;22.70;81.54
16690;BME280;8458;52.220;9.884;2023-06-22T07:31:47;101022.22;;;22.76;79.92
16690;BME280;8458;52.220;9.884;2023-06-22T07:34:15;101025.34;;;22.83;79.74
16690;BME280;8458;52.220;9.884;2023-06-22T07:36:41;101024.34;;;22.87;76.61
16690;BME280;8458;52.220;9.884;2023-06-22T07:39:07;101023.50;;;22.87;76.40
16690;BME280;8458;52.220;9.884;2023-06-22T07:41:34;101025.16;;;22.88;77.57
16690;BME280;8458;52.220;9.884;2023-06-22T07:44:01;101023.50;;;22.87;76.80
16690;BME280;8458;52.220;9.884;2023-06-22T07:46:28;101027.50;;;22.86;76.47
16690;BME280;8458;52.220;9.884;2023-06-22T07:48:57;101031.81;;;22.83;76.95
16690;BME280;8458;52.220;9.884;2023-06-22T07:51:25;101034.31;;;22.85;77.04
16690;BME280;8458;52.220;9.884;2023-06-22T07:53:51;101041.16;;;22.84;77.46
16690;BME280;8458;52.220;9.884;2023-06-22T07:56:18;101031.47;;;22.85;78.14
16690;BME280;8458;52.220;9.884;2023-06-22T07:58:45;101039.16;;;22.84;77.75
16690;BME280;8458;52.220;9.884;2023-06-22T08:01:12;101035.16;;;22.85;78.32
16690;BME280;8458;52.220;9.884;2023-06-22T08:03:38;101034.66;;;22.83;78.21
16690;BME280;8458;52.220;9.884;2023-06-22T08:06:07;101026.50;;;22.82;77.44
16690;BME280;8458;52.220;9.884;2023-06-22T08:08:34;101031.00;;;22.83;78.99
16690;BME280;8458;52.220;9.884;2023-06-22T08:11:01;101026.50;;;22.82;78.48
16690;BME280;8458;52.220;9.884;2023-06-22T08:13:27;101027.50;;;22.86;78.42
16690;BME280;8458;52.220;9.884;2023-06-22T08:15:54;101032.47;;;22.89;78.14
16690;BME280;8458;52.220;9.884;2023-06-22T08:18:21;101035.78;;;22.91;79.09
16690;BME280;8458;52.220;9.884;2023-06-22T08:20:47;101032.78;;;22.96;79.67
16690;BME280;8458;52.220;9.884;2023-06-22T08:23:16;101038.72;;;23.03;79.66
16690;BME280;8458;52.220;9.884;2023-06-22T08:25:43;101035.41;;;23.10;78.92
16690;BME280;8458;52.220;9.884;2023-06-22T08:28:09;101041.19;;;23.14;79.17
16690;BME280;8458;52.220;9.884;2023-06-22T08:30:36;101043.47;;;23.20;79.50
16690;BME280;8458;52.220;9.884;2023-06-22T08:33:02;101039.59;;;23.25;78.67
16690;BME280;8458;52.220;9.884;2023-06-22T08:35:29;101036.59;;;23.30;78.72
16690;BME280;8458;52.220;9.884;2023-06-22T08:37:55;101042.25;;;23.30;78.96
16690;BME280;8458;52.220;9.884;2023-06-22T08:40:23;101039.44;;;23.30;78.57
16690;BME280;8458;52.220;9.884;2023-06-22T08:42:50;101039.91;;;23.32;78.98
16690;BME280;8458;52.220;9.884;2023-06-22T08:45:16;101040.38;;;23.34;79.64
16690;BME280;8458;52.220;9.884;2023-06-22T08:47:43;101039.22;;;23.35;78.34
16690;BME280;8458;52.220;9.884;2023-06-22T08:50:10;101033.56;;;23.35;78.91
16690;BME280;8458;52.220;9.884;2023-06-22T08:52:38;101031.22;;;23.37;78.87
16690;BME280;8458;52.220;9.884;2023-06-22T08:55:07;101029.41;;;23.33;79.05
16690;BME280;8458;52.220;9.884;2023-06-22T08:57:35;101024.94;;;23.32;78.69
16690;BME280;8458;52.220;9.884;2023-06-22T09:00:05;101025.28;;;23.30;78.10
16690;BME280;8458;52.220;9.884;2023-06-22T09:02:33;101028.47;;;23.29;78.26
16690;BME280;8458;52.220;9.884;2023-06-22T09:05:02;101020.31;;;23.27;78.13
16690;BME280;8458;52.220;9.884;2023-06-22T09:07:29;101019.13;;;23.28;78.60
16690;BME280;8458;52.220;9.884;2023-06-22T09:09:56;101013.81;;;23.26;78.38
16690;BME280;8458;52.220;9.884;2023-06-22T09:12:22;101004.28;;;23.31;77.73
16690;BME280;8458;52.220;9.884;2023-06-22T09:14:52;100985.00;;;23.33;78.04
16690;BME280;8458;52.220;9.884;2023-06-22T09:17:19;100985.94;;;23.37;78.85
16690;BME280;8458;52.220;9.884;2023-06-22T09:19:45;100974.22;;;23.48;78.45
16690;BME280;8458;52.220;9.884;2023-06-22T09:22:12;100975.66;;;23.54;78.73
16690;BME280;8458;52.220;9.884;2023-06-22T09:24:39;100979.25;;;23.63;77.66
16690;BME280;8458;52.220;9.884;2023-06-22T09:27:06;100977.72;;;23.66;77.53
16690;BME280;8458;52.220;9.884;2023-06-22T09:29:32;100978.19;;;23.68;77.49
16690;BME280;8458;52.220;9.884;2023-06-22T09:32:00;100988.72;;;23.67;78.00
16690;BME280;8458;52.220;9.884;2023-06-22T09:34:27;100991.31;;;23.72;77.30
16690;BME280;8458;52.220;9.884;2023-06-22T09:36:53;100991.31;;;23.72;76.82
16690;BME280;8458;52.220;9.884;2023-06-22T09:39:20;100988.47;;;23.72;77.66
16690;BME280;8458;52.220;9.884;2023-06-22T09:41:46;100986.34;;;23.69;78.44
16690;BME280;8458;52.220;9.884;2023-06-22T09:44:13;100980.94;;;23.76;78.08
16690;BME280;8458;52.220;9.884;2023-06-22T09:46:39;100986.06;;;23.83;78.61
16690;BME280;8458;52.220;9.884;2023-06-22T09:49:07;100985.97;;;23.92;78.06
16690;BME280;8458;52.220;9.884;2023-06-22T09:51:34;100980.94;;;23.97;77.77
16690;BME280;8458;52.220;9.884;2023-06-22T09:54:00;100978.72;;;24.03;76.59
16690;BME280;8458;52.220;9.884;2023-06-22T09:56:26;100961.97;;;24.10;77.63
16690;BME280;8458;52.220;9.884;2023-06-22T09:58:54;100954.19;;;24.20;77.77
16690;BME280;8458;52.220;9.884;2023-06-22T10:01:21;100950.22;;;24.33;78.39
16690;BME280;8458;52.220;9.884;2023-06-22T10:03:48;100964.03;;;24.47;76.32
16690;BME280;8458;52.220;9.884;2023-06-22T10:06:16;100956.59;;;24.55;76.52
16690;BME280;8458;52.220;9.884;2023-06-22T10:08:42;100968.56;;;24.60;75.52
16690;BME280;8458;52.220;9.884;2023-06-22T10:11:09;100965.59;;;24.69;75.36
16690;BME280;8458;52.220;9.884;2023-06-22T10:13:35;100958.50;;;24.75;75.62
16690;BME280;8458;52.220;9.884;2023-06-22T10:16:02;100960.06;;;24.73;75.36
16690;BME280;8458;52.220;9.884;2023-06-22T10:18:28;100967.50;;;24.77;76.72
16690;BME280;8458;52.220;9.884;2023-06-22T10:20:56;100960.63;;;24.78;76.59
16690;BME280;8458;52.220;9.884;2023-06-22T10:23:24;100958.66;;;24.79;75.66
16690;BME280;8458;52.220;9.884;2023-06-22T10:25:50;100961.59;;;24.82;75.96
16690;BME280;8458;52.220;9.884;2023-06-22T10:28:16;100967.72;;;24.84;76.31
16690;BME280;8458;52.220;9.884;2023-06-22T10:30:43;100958.50;;;24.87;76.29
16690;BME280;8458;52.220;9.884;2023-06-22T10:33:11;100961.81;;;24.90;75.22
16690;BME280;8458;52.220;9.884;2023-06-22T10:35:38;100958.63;;;24.91;75.64
16690;BME280;8458;52.220;9.884;2023-06-22T10:38:05;100946.94;;;24.93;76.52
16690;BME280;8458;52.220;9.884;2023-06-22T10:40:33;100937.22;;;24.94;76.28
16690;BME280;8458;52.220;9.884;2023-06-22T10:43:00;100931.19;;;24.95;76.78
16690;BME280;8458;52.220;9.884;2023-06-22T10:45:26;100934.63;;;25.01;76.12
16690;BME280;8458;52.220;9.884;2023-06-22T10:47:53;100923.38;;;25.04;76.03
16690;BME280;8458;52.220;9.884;2023-06-22T10:50:20;100930.44;;;25.11;76.17
16690;BME280;8458;52.220;9.884;2023-06-22T10:52:49;100916.38;;;25.14;76.83
16690;BME280;8458;52.220;9.884;2023-06-22T10:55:15;100915.19;;;25.15;75.33
16690;BME280;8458;52.220;9.884;2023-06-22T10:57:43;100911.19;;;25.16;76.72
16690;BME280;8458;52.220;9.884;2023-06-22T11:00:12;100911.19;;;25.16;76.52
16690;BME280;8458;52.220;9.884;2023-06-22T11:02:39;100914.47;;;25.18;76.39
16690;BME280;8458;52.220;9.884;2023-06-22T11:05:06;100918.50;;;25.17;76.00
16690;BME280;8458;52.220;9.884;2023-06-22T11:07:33;100918.50;;;25.17;75.97
16690;BME280;8458;52.220;9.884;2023-06-22T11:09:59;100917.78;;;25.20;76.46
16690;BME280;8458;52.220;9.884;2023-06-22T11:12:26;100917.19;;;25.27;76.10
16690;BME280;8458;52.220;9.884;2023-06-22T11:14:54;100912.94;;;25.33;75.64
16690;BME280;8458;52.220;9.884;2023-06-22T11:17:22;100905.44;;;25.41;76.02
16690;BME280;8458;52.220;9.884;2023-06-22T11:19:48;100901.19;;;25.63;76.88
16690;BME280;8458;52.220;9.884;2023-06-22T11:22:15;100898.38;;;25.79;75.92
16690;BME280;8458;52.220;9.884;2023-06-22T11:24:41;100900.56;;;25.98;74.91
16690;BME280;8458;52.220;9.884;2023-06-22T11:27:08;100892.97;;;26.18;75.34
16690;BME280;8458;52.220;9.884;2023-06-22T11:29:34;100886.69;;;26.44;76.06
16690;BME280;8458;52.220;9.884;2023-06-22T11:32:02;100881.19;;;26.68;72.71
16690;BME280;8458;52.220;9.884;2023-06-22T11:34:29;100876.47;;;26.91;72.32
16690;BME280;8458;52.220;9.884;2023-06-22T11:36:55;100854.44;;;27.08;71.10
16690;BME280;8458;52.220;9.884;2023-06-22T11:39:22;100857.28;;;27.27;69.31
16690;BME280;8458;52.220;9.884;2023-06-22T11:41:48;100841.59;;;27.33;68.43
16690;BME280;8458;52.220;9.884;2023-06-22T11:44:15;100843.84;;;27.44;70.29
16690;BME280;8458;52.220;9.884;2023-06-22T11:46:41;100839.97;;;27.55;68.01
16690;BME280;8458;52.220;9.884;2023-06-22T11:49:09;100840.06;;;27.59;69.25
16690;BME280;8458;52.220;9.884;2023-06-22T11:51:36;100832.88;;;27.65;69.09
16690;BME280;8458;52.220;9.884;2023-06-22T11:54:02;100824.00;;;27.70;67.67
16690;BME280;8458;52.220;9.884;2023-06-22T11:56:30;100816.31;;;27.75;67.58
16690;BME280;8458;52.220;9.884;2023-06-22T11:58:57;100807.91;;;27.82;67.38
16690;BME280;8458;52.220;9.884;2023-06-22T12:01:23;100811.31;;;27.91;66.20
16690;BME280;8458;52.220;9.884;2023-06-22T12:03:50;100808.31;;;28.03;66.92
16690;BME280;8458;52.220;9.884;2023-06-22T12:06:18;100795.03;;;28.15;65.80
16690;BME280;8458;52.220;9.884;2023-06-22T12:08:46;100797.13;;;28.18;63.92
16690;BME280;8458;52.220;9.884;2023-06-22T12:11:12;100792.66;;;28.17;64.81
16690;BME280;8458;52.220;9.884;2023-06-22T12:13:39;100789.91;;;28.24;66.00
16690;BME280;8458;52.220;9.884;2023-06-22T12:16:05;100787.03;;;28.24;63.25
16690;BME280;8458;52.220;9.884;2023-06-22T12:18:32;100787.94;;;28.28;63.82
16690;BME280;8458;52.220;9.884;2023-06-22T12:21:00;100772.09;;;28.31;62.26
16690;BME280;8458;52.220;9.884;2023-06-22T12:23:27;100772.25;;;28.41;63.85
16690;BME280;8458;52.220;9.884;2023-06-22T12:25:54;100768.41;;;28.57;62.44
16690;BME280;8458;52.220;9.884;2023-06-22T12:28:20;100768.50;;;28.64;62.88
16690;BME280;8458;52.220;9.884;2023-06-22T12:30:48;100768.09;;;28.62;62.65
16690;BME280;8458;52.220;9.884;2023-06-22T12:33:15;100761.97;;;28.60;62.80
16690;BME280;8458;52.220;9.884;2023-06-22T12:35:41;100776.50;;;28.55;62.89
16690;BME280;8458;52.220;9.884;2023-06-22T12:38:08;100760.94;;;28.49;63.03
16690;BME280;8458;52.220;9.884;2023-06-22T12:40:36;100764.66;;;28.53;62.42
16690;BME280;8458;52.220;9.884;2023-06-22T12:43:02;100761.38;;;28.51;63.78
16690;BME280;8458;52.220;9.884;2023-06-22T12:45:29;100760.50;;;28.47;62.50
16690;BME280;8458;52.220;9.884;2023-06-22T12:47:58;100751.06;;;28.42;63.24
16690;BME280;8458;52.220;9.884;2023-06-22T12:50:25;100750.25;;;28.42;64.62
16690;BME280;8458;52.220;9.884;2023-06-22T12:52:51;100747.84;;;28.44;63.28
16690;BME280;8458;52.220;9.884;2023-06-22T12:55:18;100737.28;;;28.44;63.64
16690;BME280;8458;52.220;9.884;2023-06-22T12:57:46;100745.53;;;28.53;64.95
16690;BME280;8458;52.220;9.884;2023-06-22T13:00:13;100747.31;;;28.61;63.59